Terminal Aerodrome Forecast
Issued by NWS Melbourne, FL

Current Version | Previous Version | Text Only | Print | Product List | Glossary On
Versions: 1 2 3 4 5 6 7 8 9 10 11 12 13 14 15 16
000
FTUS42 KMLB 252300 RRA
TAFDAB
TAF
KDAB 252342Z 2600/2624 15005KT P6SM VCSH SCT040 BKN130
     FM260100 VRB03KT P6SM FEW040 BKN250
     FM261400 23005KT P6SM SCT020 SCT250
     FM261700 24005KT P6SM VCTS SCT035CB SCT080=

USA.gov is the U.S. government's official web portal to all federal, state and local government web resources and services.